createdAt,value
2023-10-28T00:00:40.834Z,7.53
2023-10-28T00:01:43.106Z,8.13
2023-10-28T00:02:46.225Z,7.82
2023-10-28T00:03:48.533Z,8.30
2023-10-28T00:04:50.761Z,8.38
2023-10-28T00:05:53.201Z,8.60
2023-10-28T00:06:55.401Z,8.82
2023-10-28T00:07:57.649Z,7.85
2023-10-28T00:08:59.931Z,8.07
2023-10-28T00:10:08.357Z,8.80
2023-10-28T00:11:11.343Z,8.50
2023-10-28T00:12:15.380Z,7.57
2023-10-28T00:13:17.583Z,8.43
2023-10-28T00:14:20.767Z,9.00
2023-10-28T00:15:22.954Z,7.90
2023-10-28T00:16:25.306Z,7.95
2023-10-28T00:17:27.636Z,8.18
2023-10-28T00:18:29.853Z,7.72
2023-10-28T00:19:32.254Z,7.35
2023-10-28T00:20:35.696Z,8.35
2023-10-28T00:21:38.592Z,7.72
2023-10-28T00:22:41.049Z,7.43
2023-10-28T00:23:43.675Z,7.40
2023-10-28T00:24:45.894Z,8.05
2023-10-28T00:25:48.112Z,7.22
2023-10-28T00:26:50.317Z,7.80
2023-10-28T00:27:55.444Z,8.00
2023-10-28T00:28:57.682Z,7.35
2023-10-28T00:30:01.364Z,8.65
2023-10-28T00:31:05.246Z,7.65
2023-10-28T00:32:07.713Z,7.57
2023-10-28T00:33:10.038Z,8.10
2023-10-28T00:34:12.280Z,7.75
2023-10-28T00:35:14.862Z,7.47
2023-10-28T00:36:17.208Z,8.65
2023-10-28T00:37:19.383Z,7.10
2023-10-28T00:38:24.751Z,7.63
2023-10-28T00:39:26.957Z,7.63
2023-10-28T00:40:32.971Z,7.75
2023-10-28T00:41:35.432Z,7.68
2023-10-28T00:42:38.272Z,7.43
2023-10-28T00:43:40.462Z,6.80
2023-10-28T00:44:42.737Z,7.70
2023-10-28T00:45:44.951Z,7.32
2023-10-28T00:46:48.049Z,8.15
2023-10-28T00:47:50.781Z,7.75
2023-10-28T00:48:54.487Z,8.05
2023-10-28T00:49:59.254Z,7.25
2023-10-28T00:51:02.187Z,8.32
2023-10-28T00:52:04.680Z,8.85
2023-10-28T00:53:06.912Z,8.05
2023-10-28T00:54:09.181Z,8.32
2023-10-28T00:55:12.962Z,7.03
2023-10-28T00:56:15.487Z,8.32
2023-10-28T00:57:18.677Z,7.47
2023-10-28T00:58:25.609Z,8.32
2023-10-28T00:59:29.156Z,6.90
2023-10-28T01:00:31.403Z,7.57
2023-10-28T01:01:34.228Z,8.35
2023-10-28T01:02:38.203Z,7.65
2023-10-28T01:03:41.592Z,7.57
2023-10-28T01:04:44.727Z,7.68
2023-10-28T01:05:47.262Z,7.38
2023-10-28T01:06:49.616Z,8.45
2023-10-28T01:07:51.933Z,7.38
2023-10-28T01:08:54.194Z,6.97
2023-10-28T01:09:56.760Z,7.47
2023-10-28T01:11:02.155Z,6.85
2023-10-28T01:12:07.734Z,6.68
2023-10-28T01:13:09.964Z,8.30
2023-10-28T01:14:12.822Z,7.25
2023-10-28T01:15:15.050Z,8.02
2023-10-28T01:16:17.342Z,7.22
2023-10-28T01:17:19.752Z,7.03
2023-10-28T01:18:22.021Z,8.10
2023-10-28T01:19:24.301Z,7.35
2023-10-28T01:20:26.719Z,7.22
2023-10-28T01:21:29.204Z,6.03
2023-10-28T01:22:31.489Z,6.97
2023-10-28T01:23:33.719Z,7.78
2023-10-28T01:24:36.551Z,7.70
2023-10-28T01:25:38.861Z,6.88
2023-10-28T01:26:41.093Z,7.57
2023-10-28T01:27:45.779Z,7.97
2023-10-28T01:28:47.980Z,7.80
2023-10-28T01:29:50.195Z,7.20
2023-10-28T01:30:52.407Z,7.15
2023-10-28T01:31:54.916Z,6.97
2023-10-28T01:32:57.158Z,7.05
2023-10-28T01:33:59.357Z,6.53
2023-10-28T01:35:01.608Z,8.20
2023-10-28T01:36:04.028Z,7.07
2023-10-28T01:37:06.209Z,6.95
2023-10-28T01:38:09.183Z,7.53
2023-10-28T01:39:13.487Z,7.38
2023-10-28T01:40:16.300Z,7.85
2023-10-28T01:41:19.300Z,8.32
2023-10-28T01:42:23.519Z,7.68
2023-10-28T01:43:25.701Z,7.35
2023-10-28T01:44:27.925Z,8.25
2023-10-28T01:45:30.528Z,6.57
2023-10-28T01:46:34.639Z,7.82
2023-10-28T01:47:40.450Z,8.10
2023-10-28T01:48:42.816Z,7.95
2023-10-28T01:49:46.890Z,7.00
2023-10-28T01:50:49.432Z,7.35
2023-10-28T01:51:51.621Z,7.03
2023-10-28T01:52:54.026Z,7.65
2023-10-28T01:53:56.436Z,7.10
2023-10-28T01:54:58.666Z,7.68
2023-10-28T01:56:01.099Z,7.05
2023-10-28T01:57:08.139Z,7.75
2023-10-28T01:58:10.839Z,7.93
2023-10-28T01:59:14.226Z,7.95
2023-10-28T02:00:18.082Z,7.60
2023-10-28T02:01:20.322Z,7.88
2023-10-28T02:02:22.553Z,8.55
2023-10-28T02:03:24.817Z,6.93
2023-10-28T02:04:27.156Z,7.55
2023-10-28T02:05:29.368Z,7.75
2023-10-28T02:06:31.558Z,7.38
2023-10-28T02:07:37.390Z,7.15
2023-10-28T02:08:39.682Z,7.75
2023-10-28T02:09:42.017Z,7.80
2023-10-28T02:10:44.261Z,6.78
2023-10-28T02:11:46.940Z,7.95
2023-10-28T02:12:51.199Z,7.45
2023-10-28T02:13:53.692Z,7.68
2023-10-28T02:14:55.914Z,7.65
2023-10-28T02:15:58.538Z,7.03
2023-10-28T02:17:01.671Z,7.43
2023-10-28T02:18:05.750Z,6.65
2023-10-28T02:19:08.021Z,7.32
2023-10-28T02:20:11.560Z,7.80
2023-10-28T02:21:15.565Z,7.28
2023-10-28T02:22:17.944Z,7.35
2023-10-28T02:23:20.137Z,6.75
2023-10-28T02:24:22.433Z,7.25
2023-10-28T02:25:25.400Z,6.75
2023-10-28T02:26:27.608Z,6.90
2023-10-28T02:27:29.915Z,7.95
2023-10-28T02:28:32.650Z,7.88
2023-10-28T02:29:35.008Z,6.50
2023-10-28T02:30:41.469Z,7.10
2023-10-28T02:31:43.679Z,7.05
2023-10-28T02:32:46.099Z,6.88
2023-10-28T02:33:48.442Z,6.00
2023-10-28T02:34:50.948Z,6.88
2023-10-28T02:35:53.129Z,6.88
2023-10-28T02:36:55.352Z,7.03
2023-10-28T02:37:57.604Z,6.35
2023-10-28T02:39:00.199Z,7.20
2023-10-28T02:40:02.885Z,8.35
2023-10-28T02:41:08.448Z,6.72
2023-10-28T02:42:10.705Z,7.22
2023-10-28T02:43:13.082Z,7.35
2023-10-28T02:44:15.301Z,7.90
2023-10-28T02:45:17.733Z,7.38
2023-10-28T02:46:24.022Z,7.32
2023-10-28T02:47:26.809Z,6.68
2023-10-28T02:48:30.743Z,7.28
2023-10-28T02:49:32.989Z,7.03
2023-10-28T02:50:37.450Z,7.30
2023-10-28T02:51:40.289Z,7.05
2023-10-28T02:52:42.470Z,7.20
2023-10-28T02:53:44.749Z,7.40
2023-10-28T02:54:46.929Z,6.18
2023-10-28T02:55:49.246Z,6.35
2023-10-28T02:56:51.452Z,7.78
2023-10-28T02:57:54.746Z,5.93
2023-10-28T02:58:57.276Z,7.68
2023-10-28T02:59:59.614Z,7.20
2023-10-28T03:01:09.528Z,7.38
2023-10-28T03:02:12.286Z,7.43
2023-10-28T03:03:14.683Z,6.13
2023-10-28T03:04:17.251Z,6.03
2023-10-28T03:05:21.701Z,7.65
2023-10-28T03:06:23.878Z,7.10
2023-10-28T03:07:26.105Z,7.13
2023-10-28T03:08:28.385Z,7.05
2023-10-28T03:09:31.807Z,7.05
2023-10-28T03:10:34.068Z,6.43
2023-10-28T03:11:36.378Z,6.93
2023-10-28T03:12:38.997Z,6.82
2023-10-28T03:13:41.284Z,6.82
2023-10-28T03:14:43.529Z,7.25
2023-10-28T03:15:47.841Z,6.38
2023-10-28T03:16:50.160Z,6.43
2023-10-28T03:17:52.455Z,7.30
2023-10-28T03:18:54.752Z,7.80
2023-10-28T03:19:57.049Z,7.70
2023-10-28T03:20:59.907Z,6.55
2023-10-28T03:22:02.108Z,7.55
2023-10-28T03:23:04.403Z,6.63
2023-10-28T03:24:07.887Z,7.28
2023-10-28T03:25:10.312Z,7.72
2023-10-28T03:26:12.819Z,6.93
2023-10-28T03:27:15.298Z,7.70
2023-10-28T03:28:17.553Z,7.00
2023-10-28T03:29:19.948Z,7.00
2023-10-28T03:30:22.219Z,7.18
2023-10-28T03:31:25.460Z,6.97
2023-10-28T03:32:27.916Z,6.13
2023-10-28T03:33:30.164Z,7.93
2023-10-28T03:34:32.377Z,7.30
2023-10-28T03:35:34.610Z,7.40
2023-10-28T03:36:38.698Z,6.50
2023-10-28T03:37:43.422Z,7.35
2023-10-28T03:38:45.657Z,6.63
2023-10-28T03:39:48.362Z,6.50
2023-10-28T03:40:50.752Z,7.05
2023-10-28T03:41:52.980Z,6.88
2023-10-28T03:42:55.433Z,8.07
2023-10-28T03:43:57.792Z,8.23
2023-10-28T03:45:00.388Z,7.20
2023-10-28T03:46:04.467Z,6.63
2023-10-28T03:47:08.190Z,7.00
2023-10-28T03:48:11.125Z,7.68
2023-10-28T03:49:13.698Z,8.18
2023-10-28T03:50:15.904Z,6.97
2023-10-28T03:51:18.163Z,7.90
2023-10-28T03:52:20.365Z,7.45
2023-10-28T03:53:22.622Z,7.57
2023-10-28T03:54:24.846Z,8.00
2023-10-28T03:55:27.040Z,8.38
2023-10-28T03:56:30.185Z,6.57
2023-10-28T03:57:32.552Z,7.22
2023-10-28T03:58:35.520Z,7.47
2023-10-28T03:59:37.763Z,7.88
2023-10-28T04:00:40.027Z,7.50
2023-10-28T04:01:42.442Z,7.93
2023-10-28T04:02:44.747Z,6.93
2023-10-28T04:03:47.009Z,7.10
2023-10-28T04:04:49.271Z,9.52
2023-10-28T04:05:52.155Z,7.43
2023-10-28T04:06:56.482Z,9.05
2023-10-28T04:07:58.703Z,7.15
2023-10-28T04:09:00.945Z,6.72
2023-10-28T04:10:08.792Z,8.50
2023-10-28T04:11:11.695Z,7.72
2023-10-28T04:12:14.011Z,7.97
2023-10-28T04:13:16.241Z,7.28
2023-10-28T04:14:18.500Z,8.80
2023-10-28T04:15:20.947Z,7.38
2023-10-28T04:16:23.182Z,8.18
2023-10-28T04:17:25.933Z,7.50
2023-10-28T04:18:28.205Z,7.30
2023-10-28T04:19:31.038Z,7.47
2023-10-28T04:20:34.521Z,7.30
2023-10-28T04:21:36.710Z,7.68
2023-10-28T04:22:38.867Z,7.13
2023-10-28T04:23:41.120Z,7.22
2023-10-28T04:24:43.327Z,8.23
2023-10-28T04:25:45.737Z,8.27
2023-10-28T04:26:47.981Z,7.97
2023-10-28T04:27:51.890Z,8.65
2023-10-28T04:28:54.952Z,8.25
2023-10-28T04:29:57.199Z,7.95
2023-10-28T04:31:00.485Z,7.93
2023-10-28T04:32:02.749Z,8.90
2023-10-28T04:33:06.628Z,9.00
2023-10-28T04:34:08.938Z,7.35
2023-10-28T04:35:24.144Z,8.60
2023-10-28T04:36:30.167Z,8.93
2023-10-28T04:37:32.658Z,8.57
2023-10-28T04:38:35.967Z,8.82
2023-10-28T04:39:38.144Z,8.85
2023-10-28T04:40:41.884Z,8.57
2023-10-28T04:41:44.118Z,10.15
2023-10-28T04:42:48.424Z,9.90
2023-10-28T04:43:50.717Z,9.65
2023-10-28T04:44:53.452Z,9.52
2023-10-28T04:45:56.122Z,9.13
2023-10-28T04:46:58.396Z,8.10
2023-10-28T04:48:00.652Z,10.25
2023-10-28T04:49:03.031Z,8.02
2023-10-28T04:50:08.933Z,10.38
2023-10-28T04:51:11.971Z,9.93
2023-10-28T04:52:14.304Z,9.55
2023-10-28T04:53:16.530Z,9.95
2023-10-28T04:54:18.895Z,9.90
2023-10-28T04:55:23.061Z,11.15
2023-10-28T04:56:25.335Z,9.40
2023-10-28T04:57:27.584Z,9.98
2023-10-28T04:58:29.720Z,9.43
2023-10-28T04:59:32.211Z,10.40
2023-10-28T05:00:34.481Z,11.68
2023-10-28T05:01:36.721Z,10.95
2023-10-28T05:02:40.996Z,10.00
2023-10-28T05:03:43.219Z,11.85
2023-10-28T05:04:45.535Z,10.63
2023-10-28T05:05:47.769Z,10.50
2023-10-28T05:06:51.012Z,9.82
2023-10-28T05:07:53.233Z,9.90
2023-10-28T05:08:55.485Z,11.23
2023-10-28T05:09:57.754Z,11.02
2023-10-28T05:10:59.989Z,10.05
2023-10-28T05:12:03.053Z,11.07
2023-10-28T05:13:05.364Z,10.32
2023-10-28T05:14:11.013Z,10.77
2023-10-28T05:15:13.280Z,11.38
2023-10-28T05:16:15.633Z,11.73
2023-10-28T05:17:18.164Z,11.77
2023-10-28T05:18:20.744Z,10.93
2023-10-28T05:19:23.761Z,12.45
2023-10-28T05:20:26.862Z,11.30
2023-10-28T05:21:29.085Z,11.43
2023-10-28T05:22:31.398Z,12.23
2023-10-28T05:23:33.804Z,13.07
2023-10-28T05:24:35.999Z,12.27
2023-10-28T05:25:38.220Z,11.43
2023-10-28T05:26:40.489Z,14.52
2023-10-28T05:27:42.700Z,11.68
2023-10-28T05:28:47.757Z,16.65
2023-10-28T05:29:49.937Z,14.20
2023-10-28T05:30:52.164Z,13.85
2023-10-28T05:31:57.916Z,12.65
2023-10-28T05:33:01.994Z,13.05
2023-10-28T05:34:04.537Z,14.35
2023-10-28T05:35:09.439Z,12.60
2023-10-28T05:36:11.680Z,13.02
2023-10-28T05:37:13.843Z,11.52
2023-10-28T05:38:16.190Z,11.85
2023-10-28T05:39:18.527Z,11.43
2023-10-28T05:40:22.015Z,12.73
2023-10-28T05:41:24.332Z,13.32
2023-10-28T05:42:26.546Z,13.13
2023-10-28T05:43:28.708Z,13.52
2023-10-28T05:44:30.873Z,13.77
2023-10-28T05:45:33.088Z,13.32
2023-10-28T05:46:35.320Z,13.70
2023-10-28T05:47:37.613Z,12.73
2023-10-28T05:48:39.812Z,13.88
2023-10-28T05:49:43.375Z,11.90
2023-10-28T05:50:45.573Z,12.35
2023-10-28T05:51:47.777Z,12.80
2023-10-28T05:52:50.287Z,12.50
2023-10-28T05:53:52.548Z,12.75
2023-10-28T05:54:54.721Z,13.52
2023-10-28T05:55:57.356Z,12.40
2023-10-28T05:56:59.886Z,13.82
2023-10-28T05:58:02.165Z,12.60
2023-10-28T05:59:04.430Z,13.50
2023-10-28T06:00:16.914Z,13.45
2023-10-28T06:01:19.146Z,12.02
2023-10-28T06:02:21.570Z,13.82
2023-10-28T06:03:23.946Z,12.57
2023-10-28T06:04:26.435Z,13.70
2023-10-28T06:05:28.693Z,12.80
2023-10-28T06:06:30.993Z,13.88
2023-10-28T06:07:34.043Z,13.80
2023-10-28T06:08:36.423Z,13.68
2023-10-28T06:09:38.739Z,16.00
2023-10-28T06:10:40.916Z,14.35
2023-10-28T06:11:43.411Z,14.77
2023-10-28T06:12:45.628Z,13.95
2023-10-28T06:13:47.828Z,14.27
2023-10-28T06:14:50.089Z,14.73
2023-10-28T06:15:52.249Z,13.70
2023-10-28T06:16:54.482Z,15.13
2023-10-28T06:17:58.329Z,15.95
2023-10-28T06:19:01.720Z,15.43
2023-10-28T06:20:06.536Z,13.90
2023-10-28T06:21:08.976Z,15.40
2023-10-28T06:22:14.265Z,15.48
2023-10-28T06:23:16.641Z,14.73
2023-10-28T06:24:21.457Z,14.52
2023-10-28T06:25:23.780Z,14.65
2023-10-28T06:26:26.034Z,15.55
2023-10-28T06:27:28.190Z,14.35
2023-10-28T06:28:30.475Z,14.75
2023-10-28T06:29:34.133Z,15.30
2023-10-28T06:30:36.536Z,15.75
2023-10-28T06:31:40.177Z,15.13
2023-10-28T06:32:43.378Z,15.73
2023-10-28T06:33:45.660Z,14.85
2023-10-28T06:34:47.915Z,15.95
2023-10-28T06:35:50.114Z,15.23
2023-10-28T06:36:52.291Z,13.80
2023-10-28T06:37:54.596Z,14.43
2023-10-28T06:38:57.129Z,16.05
2023-10-28T06:40:00.099Z,15.55
2023-10-28T06:41:02.446Z,15.52
2023-10-28T06:42:05.353Z,15.80
2023-10-28T06:43:12.259Z,16.67
2023-10-28T06:44:15.788Z,17.08
2023-10-28T06:45:18.764Z,17.48
2023-10-28T06:46:21.105Z,14.65
2023-10-28T06:47:23.407Z,17.52
2023-10-28T06:48:25.821Z,17.40
2023-10-28T06:49:28.100Z,16.52
2023-10-28T06:50:30.361Z,15.55
2023-10-28T06:51:34.153Z,16.30
2023-10-28T06:52:37.628Z,16.90
2023-10-28T06:53:43.587Z,18.08
2023-10-28T06:54:45.943Z,18.70
2023-10-28T06:55:49.344Z,20.50
2023-10-28T06:56:52.861Z,20.17
2023-10-28T06:57:57.878Z,23.40
2023-10-28T06:59:00.572Z,19.20
2023-10-28T07:00:04.143Z,16.92
2023-10-28T07:01:06.353Z,17.50
2023-10-28T07:02:09.695Z,19.20
2023-10-28T07:03:15.533Z,18.15
2023-10-28T07:04:17.830Z,17.02
2023-10-28T07:05:20.305Z,20.23
2023-10-28T07:06:22.517Z,18.00
2023-10-28T07:07:24.721Z,20.13
2023-10-28T07:08:26.946Z,19.10
2023-10-28T07:09:29.243Z,18.27
2023-10-28T07:10:31.495Z,18.25
2023-10-28T07:11:33.689Z,17.48
2023-10-28T07:12:36.112Z,18.80
2023-10-28T07:13:38.831Z,16.90
2023-10-28T07:14:41.075Z,18.48
2023-10-28T07:15:43.420Z,18.98
2023-10-28T07:16:45.717Z,16.52
2023-10-28T07:17:48.100Z,19.25
2023-10-28T07:18:50.612Z,18.17
2023-10-28T07:19:54.039Z,18.15
2023-10-28T07:20:57.004Z,16.83
2023-10-28T07:21:59.264Z,17.67
2023-10-28T07:23:04.240Z,17.83
2023-10-28T07:24:12.482Z,17.27
2023-10-28T07:25:15.421Z,18.15
2023-10-28T07:26:17.732Z,17.58
2023-10-28T07:27:19.944Z,16.95
2023-10-28T07:28:22.721Z,18.83
2023-10-28T07:29:24.948Z,17.40
2023-10-28T07:30:27.156Z,18.33
2023-10-28T07:31:29.347Z,18.67
2023-10-28T07:32:32.278Z,18.70
2023-10-28T07:33:35.525Z,18.02
2023-10-28T07:34:37.745Z,18.00
2023-10-28T07:35:47.470Z,18.77
2023-10-28T07:36:49.638Z,18.02
2023-10-28T07:37:51.859Z,19.58
2023-10-28T07:38:54.159Z,19.42
2023-10-28T07:39:56.413Z,21.02
2023-10-28T07:40:58.927Z,17.25
2023-10-28T07:42:01.923Z,19.55
2023-10-28T07:43:04.155Z,19.00
2023-10-28T07:44:06.560Z,18.25
2023-10-28T07:45:09.133Z,19.92
2023-10-28T07:46:11.364Z,18.63
2023-10-28T07:47:13.638Z,18.63
2023-10-28T07:48:15.970Z,16.55
2023-10-28T07:49:18.159Z,18.02
2023-10-28T07:50:20.523Z,18.13
2023-10-28T07:51:22.852Z,17.92
2023-10-28T07:52:25.057Z,18.90
2023-10-28T07:53:27.364Z,16.92
2023-10-28T07:54:29.694Z,18.35
2023-10-28T07:55:32.680Z,17.73
2023-10-28T07:56:35.243Z,18.95
2023-10-28T07:57:37.580Z,17.92
2023-10-28T07:58:39.760Z,17.98
2023-10-28T07:59:42.046Z,19.88
2023-10-28T08:00:44.276Z,18.70
2023-10-28T08:01:46.538Z,18.80
2023-10-28T08:02:49.002Z,18.85
2023-10-28T08:03:52.900Z,18.25
2023-10-28T08:04:55.706Z,16.95
2023-10-28T08:05:57.949Z,18.05
2023-10-28T08:07:00.176Z,18.02
2023-10-28T08:08:04.299Z,17.08
2023-10-28T08:09:07.246Z,16.23
2023-10-28T08:10:11.113Z,18.75
2023-10-28T08:11:25.442Z,16.27
2023-10-28T08:12:27.741Z,16.52
2023-10-28T08:13:30.136Z,17.58
2023-10-28T08:14:33.759Z,16.67
2023-10-28T08:15:36.002Z,16.85
2023-10-28T08:16:38.321Z,18.35
2023-10-28T08:17:40.684Z,18.00
2023-10-28T08:18:43.026Z,16.48
2023-10-28T08:19:45.395Z,15.40
2023-10-28T08:20:47.855Z,17.02
2023-10-28T08:21:50.066Z,16.75
2023-10-28T08:22:52.305Z,17.00
2023-10-28T08:23:54.602Z,15.68
2023-10-28T08:24:56.844Z,17.70
2023-10-28T08:25:59.308Z,15.95
2023-10-28T08:27:01.630Z,17.00
2023-10-28T08:28:04.660Z,15.40
2023-10-28T08:29:07.040Z,17.20
2023-10-28T08:30:09.902Z,16.38
2023-10-28T08:31:12.792Z,16.95
2023-10-28T08:32:19.123Z,16.58
2023-10-28T08:33:21.969Z,16.42
2023-10-28T08:34:26.174Z,17.27
2023-10-28T08:35:29.679Z,17.10
2023-10-28T08:36:35.298Z,15.80
2023-10-28T08:37:37.750Z,16.00
2023-10-28T08:38:39.961Z,17.35
2023-10-28T08:39:42.480Z,15.27
2023-10-28T08:40:46.665Z,14.07
2023-10-28T08:41:51.344Z,15.27
2023-10-28T08:42:53.818Z,14.75
2023-10-28T08:43:58.033Z,14.65
2023-10-28T08:45:02.639Z,15.20
2023-10-28T08:46:06.109Z,14.50
2023-10-28T08:47:08.549Z,14.80
2023-10-28T08:48:11.579Z,13.85
2023-10-28T08:49:16.815Z,14.18
2023-10-28T08:50:20.742Z,14.07
2023-10-28T08:51:23.035Z,12.50
2023-10-28T08:52:29.140Z,13.45
2023-10-28T08:53:34.968Z,13.45
2023-10-28T08:54:39.305Z,13.15
2023-10-28T08:55:41.703Z,15.77
2023-10-28T08:56:45.386Z,13.82
2023-10-28T08:57:48.235Z,13.02
2023-10-28T08:58:52.166Z,13.38
2023-10-28T08:59:54.426Z,12.93
2023-10-28T09:01:00.583Z,11.25
2023-10-28T09:02:09.194Z,11.50
2023-10-28T09:03:14.190Z,14.68
2023-10-28T09:04:16.547Z,13.75
2023-10-28T09:05:18.758Z,11.80
2023-10-28T09:06:21.581Z,11.70
2023-10-28T09:07:24.334Z,10.40
2023-10-28T09:08:26.606Z,11.23
2023-10-28T09:09:29.028Z,10.70
2023-10-28T09:10:31.460Z,10.88
2023-10-28T09:11:33.678Z,11.13
2023-10-28T09:12:36.346Z,11.82
2023-10-28T09:13:39.585Z,12.13
2023-10-28T09:14:41.794Z,12.23
2023-10-28T09:15:44.303Z,11.10
2023-10-28T09:16:46.637Z,11.35
2023-10-28T09:17:48.905Z,10.20
2023-10-28T09:18:52.180Z,10.85
2023-10-28T09:19:54.644Z,11.43
2023-10-28T09:20:56.866Z,11.75
2023-10-28T09:22:00.358Z,11.60
2023-10-28T09:23:02.631Z,10.55
2023-10-28T09:24:05.319Z,11.63
2023-10-28T09:25:15.616Z,11.55
2023-10-28T09:26:19.269Z,10.52
2023-10-28T09:27:22.296Z,10.70
2023-10-28T09:28:26.256Z,10.57
2023-10-28T09:29:34.625Z,11.13
2023-10-28T09:30:47.790Z,10.75
2023-10-28T09:31:51.394Z,9.52
2023-10-28T09:32:54.729Z,10.77
2023-10-28T09:33:59.197Z,9.85
2023-10-28T09:35:06.858Z,10.98
2023-10-28T09:36:09.754Z,10.43
2023-10-28T09:37:19.300Z,9.93
2023-10-28T09:38:21.934Z,12.00
2023-10-28T09:39:25.316Z,10.65
2023-10-28T09:40:28.336Z,10.25
2023-10-28T09:41:31.523Z,11.25
2023-10-28T09:42:35.951Z,11.10
2023-10-28T09:43:39.121Z,11.38
2023-10-28T09:44:45.190Z,11.45
2023-10-28T09:45:51.593Z,12.10
2023-10-28T09:47:05.146Z,10.65
2023-10-28T09:48:17.072Z,9.73
2023-10-28T09:49:22.020Z,11.57
2023-10-28T09:50:28.537Z,11.23
2023-10-28T09:51:31.807Z,10.32
2023-10-28T09:52:35.957Z,9.45
2023-10-28T09:53:44.684Z,10.27
2023-10-28T09:54:50.389Z,8.38
2023-10-28T09:55:58.147Z,10.35
2023-10-28T09:57:01.927Z,10.00
2023-10-28T09:58:09.589Z,10.57
2023-10-28T09:59:19.233Z,10.85
2023-10-28T10:00:24.903Z,10.10
2023-10-28T10:01:36.382Z,10.70
2023-10-28T10:03:00.985Z,11.85
2023-10-28T10:04:09.148Z,9.48
2023-10-28T10:05:24.432Z,10.63
2023-10-28T10:06:27.151Z,10.63
2023-10-28T10:07:29.452Z,9.63
2023-10-28T10:08:34.725Z,10.15
2023-10-28T10:09:49.797Z,10.63
2023-10-28T10:10:58.867Z,9.82
2023-10-28T10:12:01.561Z,9.52
2023-10-28T10:13:04.516Z,9.50
2023-10-28T10:14:12.089Z,10.10
2023-10-28T10:15:14.851Z,9.88
2023-10-28T10:16:31.693Z,10.30
2023-10-28T10:17:45.828Z,10.07
2023-10-28T10:18:51.050Z,9.80
2023-10-28T10:19:53.793Z,9.43
2023-10-28T10:21:07.152Z,8.70
2023-10-28T10:22:09.545Z,9.30
2023-10-28T10:23:11.845Z,10.02
2023-10-28T10:24:14.112Z,8.80
2023-10-28T10:25:16.312Z,9.57
2023-10-28T10:26:33.168Z,8.88
2023-10-28T10:27:36.999Z,9.25
2023-10-28T10:28:47.728Z,8.13
2023-10-28T10:29:50.085Z,7.93
2023-10-28T10:30:52.573Z,7.63
2023-10-28T10:31:57.071Z,9.88
2023-10-28T10:32:59.783Z,8.75
2023-10-28T10:34:10.666Z,7.53
2023-10-28T10:36:20.107Z,6.63
2023-10-28T10:37:26.272Z,6.75
2023-10-28T10:38:30.423Z,7.32
2023-10-28T10:39:45.689Z,6.07
2023-10-28T10:40:48.709Z,7.20
2023-10-28T10:41:54.758Z,7.38
2023-10-28T10:42:57.356Z,6.72
2023-10-28T10:44:34.727Z,6.15
2023-10-28T10:45:37.832Z,5.95
2023-10-28T10:46:40.352Z,6.45
2023-10-28T10:47:42.643Z,6.18
2023-10-28T10:48:48.429Z,7.30
2023-10-28T10:49:51.156Z,6.40
2023-10-28T10:50:53.549Z,6.07
2023-10-28T10:51:56.884Z,5.45
2023-10-28T10:52:59.672Z,5.07
2023-10-28T10:54:05.114Z,5.60
2023-10-28T10:55:08.424Z,5.55
2023-10-28T10:56:21.223Z,5.85
2023-10-28T10:57:23.501Z,5.07
2023-10-28T10:58:25.807Z,5.78
2023-10-28T10:59:33.300Z,5.50
2023-10-28T11:00:36.094Z,5.15
2023-10-28T11:01:39.726Z,5.00
2023-10-28T11:02:42.254Z,5.43
2023-10-28T11:03:45.832Z,5.20
2023-10-28T11:04:48.994Z,4.72
2023-10-28T11:05:52.443Z,5.38
2023-10-28T11:06:54.810Z,5.97
2023-10-28T11:07:57.750Z,4.90
2023-10-28T11:09:04.192Z,4.68
2023-10-28T11:10:09.296Z,4.43
2023-10-28T11:11:14.547Z,5.55
2023-10-28T11:12:22.807Z,5.18
2023-10-28T11:13:25.640Z,5.80
2023-10-28T11:14:27.927Z,5.05
2023-10-28T11:15:32.993Z,5.60
2023-10-28T11:16:35.618Z,5.25
2023-10-28T11:17:39.896Z,5.20
2023-10-28T11:18:42.210Z,5.13
2023-10-28T11:19:49.535Z,6.07
2023-10-28T11:20:53.661Z,6.03
2023-10-28T11:21:56.838Z,5.05
2023-10-28T11:22:59.536Z,5.30
2023-10-28T11:24:02.161Z,4.60
2023-10-28T11:25:05.919Z,5.10
2023-10-28T11:26:08.250Z,5.00
2023-10-28T11:27:19.973Z,6.07
2023-10-28T11:28:22.149Z,4.47
2023-10-28T11:29:24.460Z,5.78
2023-10-28T11:30:27.472Z,4.78
2023-10-28T11:31:31.026Z,5.32
2023-10-28T11:32:41.443Z,4.68
2023-10-28T11:33:44.701Z,6.10
2023-10-28T11:34:48.210Z,5.35
2023-10-28T11:35:52.217Z,5.80
2023-10-28T11:36:56.411Z,4.88
2023-10-28T11:37:58.621Z,5.22
2023-10-28T11:39:09.886Z,5.95
2023-10-28T11:40:13.186Z,5.45
2023-10-28T11:41:15.502Z,5.78
2023-10-28T11:42:19.793Z,5.07
2023-10-28T11:43:22.433Z,5.72
2023-10-28T11:44:30.300Z,5.55
2023-10-28T11:45:32.766Z,6.05
2023-10-28T11:46:34.967Z,5.63
2023-10-28T11:47:37.181Z,6.35
2023-10-28T11:48:39.397Z,5.85
2023-10-28T11:49:41.585Z,5.90
2023-10-28T11:50:46.194Z,5.38
2023-10-28T11:51:48.402Z,5.82
2023-10-28T11:52:50.665Z,5.60
2023-10-28T11:53:52.853Z,5.95
2023-10-28T11:54:55.138Z,5.82
2023-10-28T11:55:57.395Z,5.53
2023-10-28T11:56:59.620Z,5.25
2023-10-28T11:58:01.801Z,6.13
2023-10-28T11:59:04.095Z,6.13
2023-10-28T12:00:07.042Z,6.20
2023-10-28T12:01:09.359Z,6.20
2023-10-28T12:02:11.664Z,5.30
2023-10-28T12:03:14.300Z,6.55
2023-10-28T12:04:16.503Z,6.38
2023-10-28T12:05:18.809Z,7.00
2023-10-28T12:06:30.076Z,5.18
2023-10-28T12:07:33.034Z,6.70
2023-10-28T12:08:35.220Z,6.20
2023-10-28T12:09:38.728Z,5.90
2023-10-28T12:10:44.500Z,5.93
2023-10-28T12:11:49.395Z,7.30
2023-10-28T12:12:51.576Z,5.78
2023-10-28T12:13:57.417Z,5.88
2023-10-28T12:14:59.833Z,6.78
2023-10-28T12:16:02.024Z,5.50
2023-10-28T12:17:07.423Z,6.68
2023-10-28T12:18:10.662Z,7.28
2023-10-28T12:19:12.931Z,6.45
2023-10-28T12:20:18.429Z,6.30
2023-10-28T12:21:20.783Z,5.72
2023-10-28T12:22:22.969Z,6.10
2023-10-28T12:23:25.359Z,6.90
2023-10-28T12:24:27.540Z,6.63
2023-10-28T12:25:30.125Z,5.65
2023-10-28T12:26:32.958Z,5.32
2023-10-28T12:27:35.130Z,5.55
2023-10-28T12:28:37.522Z,6.22
2023-10-28T12:29:39.756Z,4.53
2023-10-28T12:30:41.953Z,5.47
2023-10-28T12:31:44.206Z,5.28
2023-10-28T12:32:51.279Z,5.35
2023-10-28T12:33:53.651Z,4.93
2023-10-28T12:34:55.794Z,4.13
2023-10-28T12:35:58.655Z,4.53
2023-10-28T12:37:01.609Z,4.03
2023-10-28T12:38:04.626Z,4.65
2023-10-28T12:39:06.840Z,4.75
2023-10-28T12:40:13.676Z,4.13
2023-10-28T12:41:16.140Z,4.28
2023-10-28T12:42:18.684Z,4.60
2023-10-28T12:43:20.914Z,4.70
2023-10-28T12:44:23.129Z,4.85
2023-10-28T12:45:25.324Z,4.60
2023-10-28T12:46:27.617Z,5.13
2023-10-28T12:47:29.881Z,5.22
2023-10-28T12:48:32.357Z,5.03
2023-10-28T12:49:34.516Z,6.20
2023-10-28T12:50:36.721Z,5.13
2023-10-28T12:51:41.576Z,4.88
2023-10-28T12:52:44.551Z,5.50
2023-10-28T12:53:46.730Z,5.05
2023-10-28T12:54:49.389Z,5.35
2023-10-28T12:55:51.587Z,5.25
2023-10-28T12:56:53.940Z,5.00
2023-10-28T12:57:56.093Z,6.00
2023-10-28T12:58:58.504Z,5.32
2023-10-28T13:00:00.811Z,5.47
2023-10-28T13:01:03.085Z,5.38
2023-10-28T13:02:08.330Z,6.82
2023-10-28T13:03:10.657Z,5.50
2023-10-28T13:04:13.491Z,4.72
2023-10-28T13:05:15.968Z,5.43
2023-10-28T13:06:18.166Z,4.53
2023-10-28T13:07:23.042Z,5.88
2023-10-28T13:08:25.272Z,5.53
2023-10-28T13:09:27.978Z,5.20
2023-10-28T13:10:30.195Z,4.93
2023-10-28T13:11:32.729Z,5.22
2023-10-28T13:12:34.969Z,4.57
2023-10-28T13:13:37.164Z,5.53
2023-10-28T13:14:39.346Z,4.95
2023-10-28T13:15:43.191Z,4.70
2023-10-28T13:16:46.247Z,5.88
2023-10-28T13:17:48.476Z,4.32
2023-10-28T13:18:51.329Z,4.53
2023-10-28T13:19:53.553Z,5.80
2023-10-28T13:20:59.652Z,5.30
2023-10-28T13:22:02.226Z,5.07
2023-10-28T13:23:04.447Z,5.10
2023-10-28T13:24:07.221Z,4.95
2023-10-28T13:25:09.886Z,5.32
2023-10-28T13:26:13.797Z,5.18
2023-10-28T13:27:16.564Z,5.00
2023-10-28T13:28:18.711Z,4.88
2023-10-28T13:29:20.948Z,4.85
2023-10-28T13:30:23.464Z,4.85
2023-10-28T13:31:25.829Z,5.10
2023-10-28T13:32:34.764Z,4.40
2023-10-28T13:33:43.213Z,4.75
2023-10-28T13:34:45.530Z,5.00
2023-10-28T13:35:47.742Z,5.20
2023-10-28T13:36:50.265Z,4.72
2023-10-28T13:37:53.067Z,5.07
2023-10-28T13:38:55.333Z,4.82
2023-10-28T13:39:58.602Z,4.13
2023-10-28T13:41:00.873Z,4.18
2023-10-28T13:42:03.133Z,4.95
2023-10-28T13:43:05.287Z,4.85
2023-10-28T13:44:07.445Z,4.63
2023-10-28T13:45:10.290Z,4.60
2023-10-28T13:46:12.588Z,4.28
2023-10-28T13:47:16.230Z,4.40
2023-10-28T13:48:20.073Z,4.70
2023-10-28T13:49:24.250Z,4.82
2023-10-28T13:50:27.872Z,4.22
2023-10-28T13:51:30.155Z,4.50
2023-10-28T13:52:38.510Z,4.53
2023-10-28T13:53:40.738Z,4.15
2023-10-28T13:54:43.606Z,4.70